Terminal Aerodrome Forecast
Issued by NWS

Current Version | Previous Version | Text Only | Print | Product List | Glossary On
Versions: 1 2 3 4 5 6 7 8 9 10 11 12 13 14 15 16 17 18 19 20 21 22 23 24 25 26 27 28 29
000
FTUS42 KTAE 170500
TAFVLD
TAF
KVLD 170526Z 1706/1806 00000KT P6SM BKN150 OVC250
     FM170900 00000KT 3SM BR SCT007 BKN250
      TEMPO 1710/1713 2SM BR OVC004
     FM171400 01004KT P6SM SCT010 SCT250
     FM171800 00000KT P6SM SCT040 SCT250
     FM180200 00000KT P6SM SKC=

USA.gov is the U.S. government's official web portal to all federal, state and local government web resources and services.